sensor_id;sensor_type;location;lat;lon;timestamp;P1;durP1;ratioP1;P2;durP2;ratioP2
1679;SDS011;838;51.794;12.258;2023-03-14T00:01:52;3.30;;;1.20;;
1679;SDS011;838;51.794;12.258;2023-03-14T00:04:17;4.60;;;1.47;;
1679;SDS011;838;51.794;12.258;2023-03-14T00:06:43;3.60;;;1.27;;
1679;SDS011;838;51.794;12.258;2023-03-14T00:09:11;3.20;;;1.37;;
1679;SDS011;838;51.794;12.258;2023-03-14T00:11:37;3.83;;;1.50;;
1679;SDS011;838;51.794;12.258;2023-03-14T00:14:03;5.47;;;1.27;;
1679;SDS011;838;51.794;12.258;2023-03-14T00:16:30;3.87;;;1.43;;
1679;SDS011;838;51.794;12.258;2023-03-14T00:18:57;3.70;;;1.63;;
1679;SDS011;838;51.794;12.258;2023-03-14T00:21:24;3.20;;;1.50;;
1679;SDS011;838;51.794;12.258;2023-03-14T00:23:50;2.70;;;1.00;;
1679;SDS011;838;51.794;12.258;2023-03-14T00:26:17;3.63;;;1.20;;
1679;SDS011;838;51.794;12.258;2023-03-14T00:28:44;3.63;;;1.00;;
1679;SDS011;838;51.794;12.258;2023-03-14T00:31:12;3.67;;;1.20;;
1679;SDS011;838;51.794;12.258;2023-03-14T00:33:40;3.30;;;1.20;;
1679;SDS011;838;51.794;12.258;2023-03-14T00:36:07;2.90;;;1.10;;
1679;SDS011;838;51.794;12.258;2023-03-14T00:38:38;3.13;;;1.63;;
1679;SDS011;838;51.794;12.258;2023-03-14T00:41:06;3.60;;;1.50;;
1679;SDS011;838;51.794;12.258;2023-03-14T00:43:33;3.03;;;1.40;;
1679;SDS011;838;51.794;12.258;2023-03-14T00:45:59;2.70;;;1.20;;
1679;SDS011;838;51.794;12.258;2023-03-14T00:48:25;2.60;;;1.10;;
1679;SDS011;838;51.794;12.258;2023-03-14T00:50:51;4.30;;;1.30;;
1679;SDS011;838;51.794;12.258;2023-03-14T00:53:17;3.33;;;1.30;;
1679;SDS011;838;51.794;12.258;2023-03-14T00:55:43;5.53;;;1.30;;
1679;SDS011;838;51.794;12.258;2023-03-14T00:58:10;3.40;;;1.40;;
1679;SDS011;838;51.794;12.258;2023-03-14T01:00:37;3.07;;;1.40;;
1679;SDS011;838;51.794;12.258;2023-03-14T01:03:03;3.00;;;1.50;;
1679;SDS011;838;51.794;12.258;2023-03-14T01:05:29;2.90;;;1.10;;
1679;SDS011;838;51.794;12.258;2023-03-14T01:07:55;2.80;;;1.20;;
1679;SDS011;838;51.794;12.258;2023-03-14T01:10:21;3.10;;;1.33;;
1679;SDS011;838;51.794;12.258;2023-03-14T01:12:48;2.97;;;1.17;;
1679;SDS011;838;51.794;12.258;2023-03-14T01:15:14;2.97;;;1.20;;
1679;SDS011;838;51.794;12.258;2023-03-14T01:17:40;4.40;;;1.10;;
1679;SDS011;838;51.794;12.258;2023-03-14T01:20:06;2.73;;;1.00;;
1679;SDS011;838;51.794;12.258;2023-03-14T01:22:35;2.70;;;1.20;;
1679;SDS011;838;51.794;12.258;2023-03-14T01:25:01;2.80;;;1.20;;
1679;SDS011;838;51.794;12.258;2023-03-14T01:27:26;2.83;;;1.20;;
1679;SDS011;838;51.794;12.258;2023-03-14T01:29:52;3.47;;;1.30;;
1679;SDS011;838;51.794;12.258;2023-03-14T01:32:18;3.20;;;1.13;;
1679;SDS011;838;51.794;12.258;2023-03-14T01:34:44;3.70;;;1.13;;
1679;SDS011;838;51.794;12.258;2023-03-14T01:37:09;2.93;;;1.33;;
1679;SDS011;838;51.794;12.258;2023-03-14T01:39:37;2.80;;;1.20;;
1679;SDS011;838;51.794;12.258;2023-03-14T01:42:03;2.60;;;1.30;;
1679;SDS011;838;51.794;12.258;2023-03-14T01:44:46;3.27;;;1.13;;
1679;SDS011;838;51.794;12.258;2023-03-14T01:47:16;3.40;;;1.20;;
1679;SDS011;838;51.794;12.258;2023-03-14T01:49:41;2.57;;;0.93;;
1679;SDS011;838;51.794;12.258;2023-03-14T01:52:11;2.50;;;1.10;;
1679;SDS011;838;51.794;12.258;2023-03-14T01:54:41;2.80;;;1.50;;
1679;SDS011;838;51.794;12.258;2023-03-14T01:57:14;2.63;;;1.10;;
1679;SDS011;838;51.794;12.258;2023-03-14T01:59:43;3.50;;;1.30;;
1679;SDS011;838;51.794;12.258;2023-03-14T02:02:17;2.80;;;1.03;;
1679;SDS011;838;51.794;12.258;2023-03-14T02:04:43;3.07;;;1.10;;
1679;SDS011;838;51.794;12.258;2023-03-14T02:07:23;2.70;;;1.40;;
1679;SDS011;838;51.794;12.258;2023-03-14T02:10:12;3.10;;;1.30;;
1679;SDS011;838;51.794;12.258;2023-03-14T02:12:41;2.50;;;1.07;;
1679;SDS011;838;51.794;12.258;2023-03-14T02:15:07;2.70;;;1.20;;
1679;SDS011;838;51.794;12.258;2023-03-14T02:17:33;3.60;;;1.23;;
1679;SDS011;838;51.794;12.258;2023-03-14T02:22:35;3.53;;;1.20;;
1679;SDS011;838;51.794;12.258;2023-03-14T02:27:44;3.03;;;1.30;;
1679;SDS011;838;51.794;12.258;2023-03-14T02:30:12;2.60;;;1.10;;
1679;SDS011;838;51.794;12.258;2023-03-14T02:32:45;3.80;;;1.10;;
1679;SDS011;838;51.794;12.258;2023-03-14T02:35:14;2.93;;;1.37;;
1679;SDS011;838;51.794;12.258;2023-03-14T02:40:14;3.40;;;1.40;;
1679;SDS011;838;51.794;12.258;2023-03-14T02:42:40;3.00;;;1.23;;
1679;SDS011;838;51.794;12.258;2023-03-14T02:47:34;2.50;;;1.13;;
1679;SDS011;838;51.794;12.258;2023-03-14T02:50:09;3.57;;;1.30;;
1679;SDS011;838;51.794;12.258;2023-03-14T02:52:40;3.83;;;1.40;;
1679;SDS011;838;51.794;12.258;2023-03-14T02:55:06;2.60;;;1.00;;
1679;SDS011;838;51.794;12.258;2023-03-14T02:57:32;2.93;;;1.10;;
1679;SDS011;838;51.794;12.258;2023-03-14T02:59:59;4.20;;;1.30;;
1679;SDS011;838;51.794;12.258;2023-03-14T03:02:25;4.37;;;1.30;;
1679;SDS011;838;51.794;12.258;2023-03-14T03:04:52;2.70;;;1.33;;
1679;SDS011;838;51.794;12.258;2023-03-14T03:07:17;2.50;;;1.10;;
1679;SDS011;838;51.794;12.258;2023-03-14T03:09:44;4.20;;;1.00;;
1679;SDS011;838;51.794;12.258;2023-03-14T03:12:09;2.50;;;1.00;;
1679;SDS011;838;51.794;12.258;2023-03-14T03:14:35;3.30;;;1.30;;
1679;SDS011;838;51.794;12.258;2023-03-14T03:17:02;2.93;;;1.20;;
1679;SDS011;838;51.794;12.258;2023-03-14T03:19:31;2.60;;;1.20;;
1679;SDS011;838;51.794;12.258;2023-03-14T03:21:57;4.10;;;1.43;;
1679;SDS011;838;51.794;12.258;2023-03-14T03:24:23;2.70;;;1.33;;
1679;SDS011;838;51.794;12.258;2023-03-14T03:26:49;2.67;;;1.20;;
1679;SDS011;838;51.794;12.258;2023-03-14T03:29:15;2.97;;;1.17;;
1679;SDS011;838;51.794;12.258;2023-03-14T03:31:41;3.07;;;1.20;;
1679;SDS011;838;51.794;12.258;2023-03-14T03:34:07;3.00;;;1.10;;
1679;SDS011;838;51.794;12.258;2023-03-14T03:36:33;2.90;;;1.30;;
1679;SDS011;838;51.794;12.258;2023-03-14T03:38:59;2.80;;;1.10;;
1679;SDS011;838;51.794;12.258;2023-03-14T03:41:25;3.10;;;1.20;;
1679;SDS011;838;51.794;12.258;2023-03-14T03:43:51;3.93;;;1.40;;
1679;SDS011;838;51.794;12.258;2023-03-14T03:46:16;2.73;;;1.20;;
1679;SDS011;838;51.794;12.258;2023-03-14T03:48:42;3.43;;;1.20;;
1679;SDS011;838;51.794;12.258;2023-03-14T03:51:11;2.60;;;1.23;;
1679;SDS011;838;51.794;12.258;2023-03-14T03:53:39;5.00;;;1.30;;
1679;SDS011;838;51.794;12.258;2023-03-14T03:56:05;2.90;;;1.17;;
1679;SDS011;838;51.794;12.258;2023-03-14T03:58:31;2.70;;;1.10;;
1679;SDS011;838;51.794;12.258;2023-03-14T04:00:57;3.00;;;1.20;;
1679;SDS011;838;51.794;12.258;2023-03-14T04:03:22;3.87;;;1.20;;
1679;SDS011;838;51.794;12.258;2023-03-14T04:08:43;3.00;;;1.27;;
1679;SDS011;838;51.794;12.258;2023-03-14T04:11:09;2.90;;;1.40;;
1679;SDS011;838;51.794;12.258;2023-03-14T04:13:35;3.10;;;1.10;;
1679;SDS011;838;51.794;12.258;2023-03-14T04:16:00;3.50;;;1.27;;
1679;SDS011;838;51.794;12.258;2023-03-14T04:18:26;2.80;;;1.10;;
1679;SDS011;838;51.794;12.258;2023-03-14T04:20:53;2.93;;;1.27;;
1679;SDS011;838;51.794;12.258;2023-03-14T04:23:20;3.63;;;1.27;;
1679;SDS011;838;51.794;12.258;2023-03-14T04:25:48;3.40;;;1.20;;
1679;SDS011;838;51.794;12.258;2023-03-14T04:28:14;3.53;;;1.13;;
1679;SDS011;838;51.794;12.258;2023-03-14T04:30:40;5.47;;;1.43;;
1679;SDS011;838;51.794;12.258;2023-03-14T04:33:05;3.87;;;1.10;;
1679;SDS011;838;51.794;12.258;2023-03-14T04:35:32;3.50;;;1.13;;
1679;SDS011;838;51.794;12.258;2023-03-14T04:37:59;2.60;;;1.17;;
1679;SDS011;838;51.794;12.258;2023-03-14T04:40:25;3.20;;;1.27;;
1679;SDS011;838;51.794;12.258;2023-03-14T04:42:51;3.87;;;1.60;;
1679;SDS011;838;51.794;12.258;2023-03-14T04:45:16;3.20;;;1.20;;
1679;SDS011;838;51.794;12.258;2023-03-14T04:47:42;5.10;;;1.10;;
1679;SDS011;838;51.794;12.258;2023-03-14T04:50:08;3.37;;;1.23;;
1679;SDS011;838;51.794;12.258;2023-03-14T04:52:35;4.60;;;1.30;;
1679;SDS011;838;51.794;12.258;2023-03-14T04:55:00;2.90;;;1.10;;
1679;SDS011;838;51.794;12.258;2023-03-14T04:57:26;3.10;;;1.30;;
1679;SDS011;838;51.794;12.258;2023-03-14T04:59:52;2.97;;;1.40;;
1679;SDS011;838;51.794;12.258;2023-03-14T05:02:18;2.73;;;1.10;;
1679;SDS011;838;51.794;12.258;2023-03-14T05:04:44;2.63;;;1.27;;
1679;SDS011;838;51.794;12.258;2023-03-14T05:07:09;3.03;;;1.27;;
1679;SDS011;838;51.794;12.258;2023-03-14T05:09:35;2.97;;;1.20;;
1679;SDS011;838;51.794;12.258;2023-03-14T05:12:01;2.70;;;1.10;;
1679;SDS011;838;51.794;12.258;2023-03-14T05:14:26;5.30;;;1.40;;
1679;SDS011;838;51.794;12.258;2023-03-14T05:16:52;5.07;;;1.60;;
1679;SDS011;838;51.794;12.258;2023-03-14T05:19:18;3.80;;;1.33;;
1679;SDS011;838;51.794;12.258;2023-03-14T05:21:43;5.00;;;1.30;;
1679;SDS011;838;51.794;12.258;2023-03-14T05:24:09;5.63;;;1.50;;
1679;SDS011;838;51.794;12.258;2023-03-14T05:26:35;2.80;;;1.10;;
1679;SDS011;838;51.794;12.258;2023-03-14T05:29:01;3.57;;;1.50;;
1679;SDS011;838;51.794;12.258;2023-03-14T05:31:26;3.90;;;1.30;;
1679;SDS011;838;51.794;12.258;2023-03-14T05:33:52;6.40;;;1.60;;
1679;SDS011;838;51.794;12.258;2023-03-14T05:36:18;3.73;;;1.40;;
1679;SDS011;838;51.794;12.258;2023-03-14T05:38:44;5.13;;;1.30;;
1679;SDS011;838;51.794;12.258;2023-03-14T05:41:09;3.80;;;1.37;;
1679;SDS011;838;51.794;12.258;2023-03-14T05:43:35;4.40;;;1.87;;
1679;SDS011;838;51.794;12.258;2023-03-14T05:46:01;3.37;;;1.30;;
1679;SDS011;838;51.794;12.258;2023-03-14T05:48:26;4.97;;;1.60;;
1679;SDS011;838;51.794;12.258;2023-03-14T05:50:55;3.77;;;1.73;;
1679;SDS011;838;51.794;12.258;2023-03-14T05:53:22;3.53;;;1.63;;
1679;SDS011;838;51.794;12.258;2023-03-14T05:55:50;3.83;;;1.67;;
1679;SDS011;838;51.794;12.258;2023-03-14T05:58:20;7.43;;;1.83;;
1679;SDS011;838;51.794;12.258;2023-03-14T06:00:45;3.90;;;1.97;;
1679;SDS011;838;51.794;12.258;2023-03-14T06:03:13;4.90;;;1.37;;
1679;SDS011;838;51.794;12.258;2023-03-14T06:05:39;4.47;;;1.80;;
1679;SDS011;838;51.794;12.258;2023-03-14T06:08:05;3.80;;;1.63;;
1679;SDS011;838;51.794;12.258;2023-03-14T06:10:31;4.80;;;1.83;;
1679;SDS011;838;51.794;12.258;2023-03-14T06:12:57;5.60;;;1.70;;
1679;SDS011;838;51.794;12.258;2023-03-14T06:15:22;5.80;;;1.77;;
1679;SDS011;838;51.794;12.258;2023-03-14T06:17:48;3.27;;;1.37;;
1679;SDS011;838;51.794;12.258;2023-03-14T06:20:14;3.30;;;1.60;;
1679;SDS011;838;51.794;12.258;2023-03-14T06:22:39;4.70;;;2.00;;
1679;SDS011;838;51.794;12.258;2023-03-14T06:25:07;3.73;;;1.50;;
1679;SDS011;838;51.794;12.258;2023-03-14T06:27:33;4.10;;;1.93;;
1679;SDS011;838;51.794;12.258;2023-03-14T06:29:59;4.30;;;1.60;;
1679;SDS011;838;51.794;12.258;2023-03-14T06:32:25;3.37;;;1.73;;
1679;SDS011;838;51.794;12.258;2023-03-14T06:34:50;5.70;;;1.97;;
1679;SDS011;838;51.794;12.258;2023-03-14T06:37:16;3.83;;;1.50;;
1679;SDS011;838;51.794;12.258;2023-03-14T06:39:42;4.07;;;1.57;;
1679;SDS011;838;51.794;12.258;2023-03-14T06:42:09;4.00;;;2.07;;
1679;SDS011;838;51.794;12.258;2023-03-14T06:44:35;3.97;;;1.50;;
1679;SDS011;838;51.794;12.258;2023-03-14T06:47:01;4.17;;;1.80;;
1679;SDS011;838;51.794;12.258;2023-03-14T06:49:26;4.20;;;1.53;;
1679;SDS011;838;51.794;12.258;2023-03-14T06:51:52;5.17;;;1.50;;
1679;SDS011;838;51.794;12.258;2023-03-14T06:54:18;3.13;;;1.70;;
1679;SDS011;838;51.794;12.258;2023-03-14T06:56:43;4.17;;;1.20;;
1679;SDS011;838;51.794;12.258;2023-03-14T06:59:09;3.63;;;1.40;;
1679;SDS011;838;51.794;12.258;2023-03-14T07:01:36;6.57;;;1.67;;
1679;SDS011;838;51.794;12.258;2023-03-14T07:04:02;7.63;;;1.70;;
1679;SDS011;838;51.794;12.258;2023-03-14T07:06:29;7.23;;;1.77;;
1679;SDS011;838;51.794;12.258;2023-03-14T07:08:55;6.87;;;1.87;;
1679;SDS011;838;51.794;12.258;2023-03-14T07:11:22;8.90;;;2.13;;
1679;SDS011;838;51.794;12.258;2023-03-14T07:13:48;3.97;;;1.30;;
1679;SDS011;838;51.794;12.258;2023-03-14T07:16:13;3.40;;;1.40;;
1679;SDS011;838;51.794;12.258;2023-03-14T07:18:39;4.17;;;1.43;;
1679;SDS011;838;51.794;12.258;2023-03-14T07:21:05;5.40;;;1.53;;
1679;SDS011;838;51.794;12.258;2023-03-14T07:23:31;4.70;;;2.07;;
1679;SDS011;838;51.794;12.258;2023-03-14T07:25:58;4.63;;;1.30;;
1679;SDS011;838;51.794;12.258;2023-03-14T07:28:24;3.00;;;1.20;;
1679;SDS011;838;51.794;12.258;2023-03-14T07:30:50;3.77;;;1.30;;
1679;SDS011;838;51.794;12.258;2023-03-14T07:33:16;4.23;;;1.20;;
1679;SDS011;838;51.794;12.258;2023-03-14T07:35:41;5.60;;;1.50;;
1679;SDS011;838;51.794;12.258;2023-03-14T07:38:07;3.97;;;1.40;;
1679;SDS011;838;51.794;12.258;2023-03-14T07:40:33;5.50;;;1.33;;
1679;SDS011;838;51.794;12.258;2023-03-14T07:42:59;3.30;;;1.37;;
1679;SDS011;838;51.794;12.258;2023-03-14T07:45:24;4.30;;;1.20;;
1679;SDS011;838;51.794;12.258;2023-03-14T07:47:50;4.80;;;1.30;;
1679;SDS011;838;51.794;12.258;2023-03-14T07:50:16;2.90;;;1.00;;
1679;SDS011;838;51.794;12.258;2023-03-14T07:52:42;4.50;;;1.63;;
1679;SDS011;838;51.794;12.258;2023-03-14T07:55:07;3.43;;;1.10;;
1679;SDS011;838;51.794;12.258;2023-03-14T07:57:33;3.33;;;1.23;;
1679;SDS011;838;51.794;12.258;2023-03-14T07:59:59;4.37;;;1.30;;
1679;SDS011;838;51.794;12.258;2023-03-14T08:02:25;4.73;;;1.13;;
1679;SDS011;838;51.794;12.258;2023-03-14T08:04:51;3.87;;;1.20;;
1679;SDS011;838;51.794;12.258;2023-03-14T08:07:17;6.30;;;2.17;;
1679;SDS011;838;51.794;12.258;2023-03-14T08:09:42;3.63;;;1.17;;
1679;SDS011;838;51.794;12.258;2023-03-14T08:12:09;2.87;;;1.10;;
1679;SDS011;838;51.794;12.258;2023-03-14T08:14:34;4.73;;;1.33;;
1679;SDS011;838;51.794;12.258;2023-03-14T08:17:00;3.53;;;1.40;;
1679;SDS011;838;51.794;12.258;2023-03-14T08:19:26;3.10;;;1.20;;
1679;SDS011;838;51.794;12.258;2023-03-14T08:21:51;3.70;;;1.33;;
1679;SDS011;838;51.794;12.258;2023-03-14T08:24:17;4.07;;;1.53;;
1679;SDS011;838;51.794;12.258;2023-03-14T08:26:43;6.67;;;1.77;;
1679;SDS011;838;51.794;12.258;2023-03-14T08:29:09;5.60;;;1.50;;
1679;SDS011;838;51.794;12.258;2023-03-14T08:31:35;3.20;;;1.20;;
1679;SDS011;838;51.794;12.258;2023-03-14T08:34:00;3.13;;;1.43;;
1679;SDS011;838;51.794;12.258;2023-03-14T08:36:27;3.13;;;1.10;;
1679;SDS011;838;51.794;12.258;2023-03-14T08:38:53;4.80;;;1.40;;
1679;SDS011;838;51.794;12.258;2023-03-14T08:41:19;3.00;;;1.20;;
1679;SDS011;838;51.794;12.258;2023-03-14T08:43:45;4.47;;;1.67;;
1679;SDS011;838;51.794;12.258;2023-03-14T08:46:11;4.77;;;1.80;;
1679;SDS011;838;51.794;12.258;2023-03-14T08:48:36;6.27;;;1.70;;
1679;SDS011;838;51.794;12.258;2023-03-14T08:51:09;2.73;;;1.17;;
1679;SDS011;838;51.794;12.258;2023-03-14T08:53:39;4.50;;;1.40;;
1679;SDS011;838;51.794;12.258;2023-03-14T08:56:06;5.20;;;1.40;;
1679;SDS011;838;51.794;12.258;2023-03-14T08:58:35;5.17;;;1.27;;
1679;SDS011;838;51.794;12.258;2023-03-14T09:01:03;3.03;;;1.00;;
1679;SDS011;838;51.794;12.258;2023-03-14T09:03:33;5.00;;;1.50;;
1679;SDS011;838;51.794;12.258;2023-03-14T09:06:07;4.50;;;1.37;;
1679;SDS011;838;51.794;12.258;2023-03-14T09:08:35;3.40;;;1.23;;
1679;SDS011;838;51.794;12.258;2023-03-14T09:11:02;5.97;;;1.50;;
1679;SDS011;838;51.794;12.258;2023-03-14T09:13:28;4.53;;;1.30;;
1679;SDS011;838;51.794;12.258;2023-03-14T09:15:54;6.13;;;1.40;;
1679;SDS011;838;51.794;12.258;2023-03-14T09:18:21;3.80;;;1.40;;
1679;SDS011;838;51.794;12.258;2023-03-14T09:20:47;3.20;;;1.20;;
1679;SDS011;838;51.794;12.258;2023-03-14T09:23:14;3.03;;;1.00;;
1679;SDS011;838;51.794;12.258;2023-03-14T09:25:40;2.73;;;1.00;;
1679;SDS011;838;51.794;12.258;2023-03-14T09:28:06;3.70;;;0.90;;
1679;SDS011;838;51.794;12.258;2023-03-14T09:30:32;4.00;;;1.00;;
1679;SDS011;838;51.794;12.258;2023-03-14T09:32:58;6.30;;;1.00;;
1679;SDS011;838;51.794;12.258;2023-03-14T09:35:24;3.97;;;1.27;;
1679;SDS011;838;51.794;12.258;2023-03-14T09:37:50;4.43;;;1.17;;
1679;SDS011;838;51.794;12.258;2023-03-14T09:40:17;5.37;;;1.03;;
1679;SDS011;838;51.794;12.258;2023-03-14T09:42:45;3.30;;;1.10;;
1679;SDS011;838;51.794;12.258;2023-03-14T09:48:05;2.87;;;0.90;;
1679;SDS011;838;51.794;12.258;2023-03-14T09:50:38;2.50;;;0.63;;
1679;SDS011;838;51.794;12.258;2023-03-14T09:53:12;3.20;;;0.80;;
1679;SDS011;838;51.794;12.258;2023-03-14T09:55:42;3.17;;;0.90;;
1679;SDS011;838;51.794;12.258;2023-03-14T09:58:18;3.43;;;0.80;;
1679;SDS011;838;51.794;12.258;2023-03-14T10:00:45;2.70;;;1.00;;
1679;SDS011;838;51.794;12.258;2023-03-14T10:05:37;2.73;;;0.80;;
1679;SDS011;838;51.794;12.258;2023-03-14T10:08:04;2.73;;;0.80;;
1679;SDS011;838;51.794;12.258;2023-03-14T10:10:30;3.50;;;0.90;;
1679;SDS011;838;51.794;12.258;2023-03-14T10:12:58;3.07;;;0.83;;
1679;SDS011;838;51.794;12.258;2023-03-14T10:15:55;3.23;;;1.20;;
1679;SDS011;838;51.794;12.258;2023-03-14T10:18:29;2.70;;;0.90;;
1679;SDS011;838;51.794;12.258;2023-03-14T10:23:53;3.77;;;1.10;;
1679;SDS011;838;51.794;12.258;2023-03-14T10:26:28;3.97;;;0.87;;
1679;SDS011;838;51.794;12.258;2023-03-14T10:29:11;3.90;;;1.20;;
1679;SDS011;838;51.794;12.258;2023-03-14T10:31:45;2.93;;;0.70;;
1679;SDS011;838;51.794;12.258;2023-03-14T10:34:22;2.53;;;0.90;;
1679;SDS011;838;51.794;12.258;2023-03-14T10:36:54;2.80;;;0.80;;
1679;SDS011;838;51.794;12.258;2023-03-14T10:42:16;3.10;;;1.30;;
1679;SDS011;838;51.794;12.258;2023-03-14T10:44:54;2.87;;;0.90;;
1679;SDS011;838;51.794;12.258;2023-03-14T10:47:23;5.40;;;0.93;;
1679;SDS011;838;51.794;12.258;2023-03-14T10:49:50;2.60;;;0.77;;
1679;SDS011;838;51.794;12.258;2023-03-14T10:54:59;2.53;;;0.80;;
1679;SDS011;838;51.794;12.258;2023-03-14T10:57:26;3.43;;;0.77;;
1679;SDS011;838;51.794;12.258;2023-03-14T10:59:53;3.00;;;0.77;;
1679;SDS011;838;51.794;12.258;2023-03-14T11:02:29;2.63;;;0.80;;
1679;SDS011;838;51.794;12.258;2023-03-14T11:07:46;2.60;;;0.70;;
1679;SDS011;838;51.794;12.258;2023-03-14T11:16:22;2.70;;;0.80;;
1679;SDS011;838;51.794;12.258;2023-03-14T11:29:40;3.30;;;0.57;;
1679;SDS011;838;51.794;12.258;2023-03-14T11:35:26;4.10;;;1.10;;
1679;SDS011;838;51.794;12.258;2023-03-14T11:38:18;3.33;;;0.67;;
1679;SDS011;838;51.794;12.258;2023-03-14T11:40:56;2.30;;;0.57;;
1679;SDS011;838;51.794;12.258;2023-03-14T11:43:34;2.60;;;0.70;;
1679;SDS011;838;51.794;12.258;2023-03-14T11:46:16;2.90;;;0.80;;
1679;SDS011;838;51.794;12.258;2023-03-14T11:49:03;3.50;;;0.60;;
1679;SDS011;838;51.794;12.258;2023-03-14T11:52:11;2.53;;;0.70;;
1679;SDS011;838;51.794;12.258;2023-03-14T11:54:43;2.80;;;1.07;;
1679;SDS011;838;51.794;12.258;2023-03-14T11:57:18;3.57;;;1.10;;
1679;SDS011;838;51.794;12.258;2023-03-14T12:10:42;2.10;;;0.50;;
1679;SDS011;838;51.794;12.258;2023-03-14T12:13:16;2.30;;;0.70;;
1679;SDS011;838;51.794;12.258;2023-03-14T12:15:47;3.23;;;0.70;;
1679;SDS011;838;51.794;12.258;2023-03-14T12:18:35;2.20;;;0.60;;
1679;SDS011;838;51.794;12.258;2023-03-14T12:21:08;2.37;;;0.73;;
1679;SDS011;838;51.794;12.258;2023-03-14T12:23:37;2.57;;;0.80;;
1679;SDS011;838;51.794;12.258;2023-03-14T12:28:37;2.53;;;0.80;;
1679;SDS011;838;51.794;12.258;2023-03-14T12:42:09;3.23;;;0.70;;
1679;SDS011;838;51.794;12.258;2023-03-14T12:44:48;2.60;;;0.80;;
1679;SDS011;838;51.794;12.258;2023-03-14T12:49:46;2.77;;;0.90;;
1679;SDS011;838;51.794;12.258;2023-03-14T12:52:21;2.30;;;0.70;;
1679;SDS011;838;51.794;12.258;2023-03-14T12:55:10;2.50;;;0.73;;
1679;SDS011;838;51.794;12.258;2023-03-14T12:58:00;2.73;;;0.80;;
1679;SDS011;838;51.794;12.258;2023-03-14T13:00:34;3.03;;;0.80;;
1679;SDS011;838;51.794;12.258;2023-03-14T13:03:17;2.67;;;0.80;;
1679;SDS011;838;51.794;12.258;2023-03-14T13:05:54;2.47;;;0.70;;
1679;SDS011;838;51.794;12.258;2023-03-14T13:08:35;2.60;;;0.80;;
1679;SDS011;838;51.794;12.258;2023-03-14T13:11:01;2.20;;;0.60;;
1679;SDS011;838;51.794;12.258;2023-03-14T13:13:31;2.97;;;0.80;;
1679;SDS011;838;51.794;12.258;2023-03-14T13:16:00;4.13;;;1.10;;
1679;SDS011;838;51.794;12.258;2023-03-14T13:21:19;2.20;;;0.70;;
1679;SDS011;838;51.794;12.258;2023-03-14T13:23:55;2.50;;;0.60;;
1679;SDS011;838;51.794;12.258;2023-03-14T13:26:21;2.60;;;0.70;;
1679;SDS011;838;51.794;12.258;2023-03-14T13:28:48;2.63;;;0.80;;
1679;SDS011;838;51.794;12.258;2023-03-14T13:31:24;2.30;;;0.60;;
1679;SDS011;838;51.794;12.258;2023-03-14T13:34:01;3.10;;;0.70;;
1679;SDS011;838;51.794;12.258;2023-03-14T13:36:30;2.40;;;0.80;;
1679;SDS011;838;51.794;12.258;2023-03-14T13:38:56;2.70;;;0.77;;
1679;SDS011;838;51.794;12.258;2023-03-14T13:41:27;2.50;;;0.70;;
1679;SDS011;838;51.794;12.258;2023-03-14T13:43:56;3.23;;;0.80;;
1679;SDS011;838;51.794;12.258;2023-03-14T13:46:42;3.17;;;0.63;;
1679;SDS011;838;51.794;12.258;2023-03-14T13:49:27;2.33;;;0.73;;
1679;SDS011;838;51.794;12.258;2023-03-14T13:51:56;2.47;;;0.70;;
1679;SDS011;838;51.794;12.258;2023-03-14T13:54:22;2.10;;;0.60;;
1679;SDS011;838;51.794;12.258;2023-03-14T13:56:48;2.70;;;0.70;;
1679;SDS011;838;51.794;12.258;2023-03-14T13:59:29;2.53;;;0.90;;
1679;SDS011;838;51.794;12.258;2023-03-14T14:01:57;2.20;;;0.70;;
1679;SDS011;838;51.794;12.258;2023-03-14T14:04:28;2.40;;;0.80;;
1679;SDS011;838;51.794;12.258;2023-03-14T14:06:57;2.30;;;0.67;;
1679;SDS011;838;51.794;12.258;2023-03-14T14:09:31;3.13;;;0.60;;
1679;SDS011;838;51.794;12.258;2023-03-14T14:14:40;2.40;;;0.70;;
1679;SDS011;838;51.794;12.258;2023-03-14T14:17:21;2.30;;;0.70;;
1679;SDS011;838;51.794;12.258;2023-03-14T14:19:53;2.43;;;0.80;;
1679;SDS011;838;51.794;12.258;2023-03-14T14:22:21;3.90;;;0.83;;
1679;SDS011;838;51.794;12.258;2023-03-14T14:24:47;2.30;;;0.60;;
1679;SDS011;838;51.794;12.258;2023-03-14T14:27:14;3.00;;;0.90;;
1679;SDS011;838;51.794;12.258;2023-03-14T14:29:42;2.73;;;0.90;;
1679;SDS011;838;51.794;12.258;2023-03-14T14:34:40;2.60;;;0.93;;
1679;SDS011;838;51.794;12.258;2023-03-14T14:37:20;2.63;;;0.90;;
1679;SDS011;838;51.794;12.258;2023-03-14T14:39:48;4.43;;;1.10;;
1679;SDS011;838;51.794;12.258;2023-03-14T14:42:18;3.07;;;1.07;;
1679;SDS011;838;51.794;12.258;2023-03-14T14:44:49;2.70;;;1.00;;
1679;SDS011;838;51.794;12.258;2023-03-14T14:47:18;4.30;;;0.90;;
1679;SDS011;838;51.794;12.258;2023-03-14T14:49:46;3.77;;;1.10;;
1679;SDS011;838;51.794;12.258;2023-03-14T14:52:14;2.20;;;0.90;;
1679;SDS011;838;51.794;12.258;2023-03-14T14:54:44;2.97;;;1.00;;
1679;SDS011;838;51.794;12.258;2023-03-14T14:57:25;2.30;;;0.93;;
1679;SDS011;838;51.794;12.258;2023-03-14T15:00:03;2.80;;;1.30;;
1679;SDS011;838;51.794;12.258;2023-03-14T15:02:39;3.90;;;1.27;;
1679;SDS011;838;51.794;12.258;2023-03-14T15:05:15;4.93;;;1.13;;
1679;SDS011;838;51.794;12.258;2023-03-14T15:07:46;4.73;;;1.40;;
1679;SDS011;838;51.794;12.258;2023-03-14T15:10:12;2.37;;;0.80;;
1679;SDS011;838;51.794;12.258;2023-03-14T15:12:39;2.97;;;1.27;;
1679;SDS011;838;51.794;12.258;2023-03-14T15:15:05;2.60;;;1.40;;
1679;SDS011;838;51.794;12.258;2023-03-14T15:17:31;2.67;;;1.30;;
1679;SDS011;838;51.794;12.258;2023-03-14T15:19:57;3.00;;;1.77;;
1679;SDS011;838;51.794;12.258;2023-03-14T15:22:23;6.53;;;1.70;;
1679;SDS011;838;51.794;12.258;2023-03-14T15:24:50;3.90;;;2.30;;
1679;SDS011;838;51.794;12.258;2023-03-14T15:27:16;2.70;;;1.30;;
1679;SDS011;838;51.794;12.258;2023-03-14T15:29:43;3.30;;;1.43;;
1679;SDS011;838;51.794;12.258;2023-03-14T15:32:10;2.90;;;1.23;;
1679;SDS011;838;51.794;12.258;2023-03-14T15:34:37;3.47;;;1.47;;
1679;SDS011;838;51.794;12.258;2023-03-14T15:37:03;2.57;;;1.43;;
1679;SDS011;838;51.794;12.258;2023-03-14T15:39:32;2.30;;;1.30;;
1679;SDS011;838;51.794;12.258;2023-03-14T15:42:01;2.60;;;1.60;;
1679;SDS011;838;51.794;12.258;2023-03-14T15:44:27;2.67;;;1.27;;
1679;SDS011;838;51.794;12.258;2023-03-14T15:46:53;2.63;;;1.30;;
1679;SDS011;838;51.794;12.258;2023-03-14T15:49:18;2.80;;;1.47;;
1679;SDS011;838;51.794;12.258;2023-03-14T15:51:44;2.60;;;1.30;;
1679;SDS011;838;51.794;12.258;2023-03-14T15:54:09;2.60;;;1.30;;
1679;SDS011;838;51.794;12.258;2023-03-14T15:56:35;2.60;;;1.30;;
1679;SDS011;838;51.794;12.258;2023-03-14T15:59:01;2.30;;;1.20;;
1679;SDS011;838;51.794;12.258;2023-03-14T16:01:27;2.30;;;1.27;;
1679;SDS011;838;51.794;12.258;2023-03-14T16:03:53;2.77;;;1.50;;
1679;SDS011;838;51.794;12.258;2023-03-14T16:06:19;2.63;;;1.63;;
1679;SDS011;838;51.794;12.258;2023-03-14T16:08:45;5.80;;;2.80;;
1679;SDS011;838;51.794;12.258;2023-03-14T16:11:11;2.90;;;1.70;;
1679;SDS011;838;51.794;12.258;2023-03-14T16:13:40;4.37;;;1.60;;
1679;SDS011;838;51.794;12.258;2023-03-14T16:16:06;3.50;;;2.10;;
1679;SDS011;838;51.794;12.258;2023-03-14T16:18:33;5.97;;;2.20;;
1679;SDS011;838;51.794;12.258;2023-03-14T16:21:05;6.07;;;2.60;;
1679;SDS011;838;51.794;12.258;2023-03-14T16:23:33;7.00;;;2.37;;
1679;SDS011;838;51.794;12.258;2023-03-14T16:26:02;6.10;;;2.40;;
1679;SDS011;838;51.794;12.258;2023-03-14T16:28:31;6.53;;;2.90;;
1679;SDS011;838;51.794;12.258;2023-03-14T16:31:04;6.70;;;2.70;;
1679;SDS011;838;51.794;12.258;2023-03-14T16:33:32;5.57;;;2.10;;
1679;SDS011;838;51.794;12.258;2023-03-14T16:36:00;6.97;;;2.57;;
1679;SDS011;838;51.794;12.258;2023-03-14T16:38:30;5.33;;;2.20;;
1679;SDS011;838;51.794;12.258;2023-03-14T16:41:06;4.90;;;2.90;;
1679;SDS011;838;51.794;12.258;2023-03-14T16:43:42;15.93;;;2.90;;
1679;SDS011;838;51.794;12.258;2023-03-14T16:46:16;5.60;;;2.07;;
1679;SDS011;838;51.794;12.258;2023-03-14T16:48:42;9.37;;;3.17;;